Flight Track Log - Related Links

Times and Time Zones

All times are in EDT time to prevent confusion due to time zone crossing. See the FDX1570 flight status page for this flight to view local times or setup timezone preferences in your user account.


Time Position Orientation Groundspeed Altitude Reporting Facility
EDT Latitude Longitude Course Direction KTS MPH feet Rate Location/Type
Fri 04:12:27 AM 35.0167 -89.9667 168° South 179 206 1,400  Level Memphis TRACON
Fri 04:13:36 AM 34.9500 -89.9500 168° South 228 262 3,700 2,381 Climbing Memphis TRACON
Fri 04:14:33 AM 34.9167 -89.8833 121° Southeast 285 328 6,400 2,707 Climbing Memphis TRACON
Fri 04:16:20 AM 34.9767 -89.7386 63° Northeast 324 373 11,100 2,192 Climbing Memphis Center
Fri 04:17:20 AM 35.0178 -89.6419 63° Northeast 332 382 12,500 2,200 Climbing Memphis Center
Fri 04:18:20 AM 35.0692 -89.5275 61° Northeast 364 419 15,500 2,850 Climbing Memphis Center
Fri 04:19:20 AM 35.1225 -89.4075 61° Northeast 383 441 18,200 2,350 Climbing Memphis Center
Fri 04:20:20 AM 35.1758 -89.2825 62° Northeast 400 460 20,200 2,000 Climbing Memphis Center
Fri 04:21:20 AM 35.2350 -89.1547 60° Northeast 420 483 22,200 1,950 Climbing Memphis Center
Fri 04:22:20 AM 35.3069 -89.0289 55° Northeast 443 510 24,100 1,950 Climbing Memphis Center
Fri 04:23:20 AM 35.3928 -88.8900 53° Northeast 458 527 26,100 2,031 Climbing Memphis Center
Fri 04:28:41 AM 35.8130 -88.1950 53° Northeast 462 532 37,000 1,874 Climbing FlightAware ADS-B
Fri 04:29:09 AM 35.8480 -88.1350 54° Northeast 468 539 37,000  Level FlightAware ADS-B
Fri 04:29:49 AM 35.9010 -88.0490 53° Northeast 470 541 37,000  Level FlightAware ADS-B
Fri 04:30:31 AM 35.9550 -87.9580 54° Northeast 470 541 37,000  Level FlightAware ADS-B
Fri 04:31:13 AM 36.0090 -87.8650 54° Northeast 468 539 37,000  Level FlightAware ADS-B
Fri 04:31:58 AM 36.0660 -87.7700 53° Northeast 466 536 37,000  Level FlightAware ADS-B
Fri 04:32:37 AM 36.1160 -87.6860 54° Northeast 466 536 37,000  Level FlightAware ADS-B
Fri 04:33:21 AM 36.1710 -87.5910 54° Northeast 466 536 37,000  Level FlightAware ADS-B
Fri 04:34:01 AM 36.2230 -87.5050 53° Northeast 467 537 37,000  Level FlightAware ADS-B
Fri 04:34:46 AM 36.2790 -87.4070 55° Northeast 468 539 37,000  Level FlightAware ADS-B
Fri 04:35:17 AM 36.3190 -87.3390 54° Northeast 468 539 37,000  Level FlightAware ADS-B
Fri 04:35:29 AM 36.3340 -87.3130 54° Northeast 468 539 37,000  Level FlightAware ADS-B
Fri 04:37:09 AM 36.4610 -87.0960 54° Northeast 465 535 37,000  Level FlightAware ADS-B
Fri 04:37:30 AM 36.4860 -87.0520 55° Northeast 463 533 37,000  Level FlightAware ADS-B
Fri 04:38:37 AM 36.5720 -86.9030 54° Northeast 463 533 37,000  Level FlightAware ADS-B
Fri 04:39:35 AM 36.6430 -86.7800 54° Northeast 461 531 37,000  Level FlightAware ADS-B
Fri 04:39:51 AM 36.6632 -86.7431 56° Northeast 461 531 37,000  Level FlightAware ADS-B
Fri 04:40:21 AM 36.7007 -86.6782 54° Northeast 461 531 37,000  Level FlightAware ADS-B
Fri 04:40:53 AM 36.7397 -86.6090 55° Northeast 461 531 37,000  Level FlightAware ADS-B
Fri 04:41:23 AM 36.7771 -86.5438 54° Northeast 462 532 37,000  Level FlightAware ADS-B
Fri 04:41:54 AM 36.8148 -86.4786 54° Northeast 462 532 37,000  Level FlightAware ADS-B
Fri 04:42:24 AM 36.8524 -86.4112 55° Northeast 464 534 37,000  Level FlightAware ADS-B
Fri 04:42:54 AM 36.8899 -86.3454 55° Northeast 465 535 37,000  Level FlightAware ADS-B
Fri 04:43:30 AM 36.9352 -86.2658 55° Northeast 471 542 37,000  Level FlightAware ADS-B
Fri 04:44:30 AM 37.0090 -86.1330 55° Northeast 478 550 37,000  Level FlightAware ADS-B
Fri 04:45:02 AM 37.0510 -86.0610 54° Northeast 473 544 37,000  Level FlightAware ADS-B
Fri 04:46:05 AM 37.1240 -85.9300 55° Northeast 466 536 37,000  Level FlightAware ADS-B
Fri 04:47:48 AM 37.2550 -85.6950 55° Northeast 460 529 37,000  Level FlightAware ADS-B
Fri 04:48:45 AM 37.3250 -85.5698 55° Northeast 460 529 37,000  Level FlightAware ADS-B
Fri 04:49:16 AM 37.3637 -85.4993 55° Northeast 464 534 37,000  Level FlightAware ADS-B
Fri 04:49:49 AM 37.4029 -85.4283 55° Northeast 465 535 37,000  Level FlightAware ADS-B
Fri 04:50:20 AM 37.4417 -85.3571 56° Northeast 466 536 37,000  Level FlightAware ADS-B
Fri 04:50:50 AM 37.4786 -85.2901 55° Northeast 466 536 37,000  Level FlightAware ADS-B
Fri 04:51:21 AM 37.5158 -85.2231 55° Northeast 467 537 37,000  Level FlightAware ADS-B
Fri 04:51:52 AM 37.5539 -85.1536 55° Northeast 467 537 37,000  Level FlightAware ADS-B
Fri 04:52:22 AM 37.5909 -85.0842 56° Northeast 467 537 37,000  Level FlightAware ADS-B
Fri 04:52:52 AM 37.6278 -85.0168 55° Northeast 467 537 37,000  Level FlightAware ADS-B
Fri 04:54:22 AM 37.7300 -84.8310 55° Northeast 465 535 37,000  Level FlightAware ADS-B
Fri 04:55:08 AM 37.7920 -84.7150 56° Northeast 461 531 37,000  Level FlightAware ADS-B
Fri 04:55:56 AM 37.8500 -84.6080 56° Northeast 460 529 37,000  Level FlightAware ADS-B
Fri 04:56:46 AM 37.9090 -84.4960 56° Northeast 461 531 37,000  Level FlightAware ADS-B
Fri 04:57:56 AM 37.9930 -84.3390 56° Northeast 461 531 37,000  Level FlightAware ADS-B
Fri 04:58:22 AM 38.0240 -84.2810 56° Northeast 461 531 37,000  Level FlightAware ADS-B
Fri 04:59:09 AM 38.0740 -84.1860 56° Northeast 461 531 37,000  Level FlightAware ADS-B
Fri 04:59:55 AM 38.1210 -84.0980 56° Northeast 461 531 37,000  Level FlightAware ADS-B
Fri 05:03:44 AM 38.3530 -83.6600 56° Northeast 461 531 37,000  Level FlightAware ADS-B
Fri 05:04:32 AM 38.4020 -83.5680 56° Northeast 461 531 37,000 300 Level FlightAware ADS-B
Fri 05:07:04 AM 38.6750 -83.0360 57° Northeast 500 575 38,000 275 Climbing FlightAware ADS-B
Fri 05:08:10 AM 38.7590 -82.8700 57° Northeast 501 577 38,000  Level FlightAware ADS-B
Fri 05:09:01 AM 38.8240 -82.7420 57° Northeast 501 577 38,000 -67 Level FlightAware ADS-B
Fri 05:09:40 AM 38.8720 -82.6480 57° Northeast 499 574 37,900 -595 Descending FlightAware ADS-B
Fri 05:11:02 AM 38.9740 -82.4470 57° Northeast 482 555 36,800 -813 Descending FlightAware ADS-B
Fri 05:13:14 AM 39.1320 -82.1310 57° Northeast 469 540 35,000 -628 Descending FlightAware ADS-B
Fri 05:13:54 AM 39.1750 -82.0440 57° Northeast 466 536 35,000  Level FlightAware ADS-B
Fri 05:14:32 AM 39.2200 -81.9520 58° Northeast 469 540 35,000  Level FlightAware ADS-B
Fri 05:15:20 AM 39.2780 -81.8360 57° Northeast 471 542 35,000  Level FlightAware ADS-B
Fri 05:17:58 AM 39.4650 -81.4530 58° Northeast 482 555 35,000  Level FlightAware ADS-B
Fri 05:19:04 AM 39.5410 -81.2990 57° Northeast 486 559 35,000  Level FlightAware ADS-B
Fri 05:19:37 AM 39.5830 -81.2130 58° Northeast 486 559 35,000  Level FlightAware ADS-B
Fri 05:21:29 AM 39.7160 -80.9350 58° Northeast 489 563 35,000  Level FlightAware ADS-B
Fri 05:22:16 AM 39.7730 -80.8150 58° Northeast 488 562 35,000  Level FlightAware ADS-B
Fri 05:24:13 AM 39.9100 -80.5290 58° Northeast 481 554 35,000  Level FlightAware ADS-B
Fri 05:26:39 AM 40.0800 -80.1690 58° Northeast 486 559 35,000  Level FlightAware ADS-B
Fri 05:27:19 AM 40.1244 -80.0728 58° Northeast 479 551 35,000  Level Cleveland Center
Fri 05:28:19 AM 40.1903 -79.9336 58° Northeast 479 551 35,000  Level Cleveland Center
Fri 05:29:19 AM 40.2603 -79.7806 59° Northeast 479 551 35,000  Level Cleveland Center
Fri 05:30:19 AM 40.3300 -79.6300 59° Northeast 479 551 35,000  Level Cleveland Center
Fri 05:31:19 AM 40.4097 -79.4569 59° Northeast 487 560 35,000  Level Cleveland Center
Fri 05:32:19 AM 40.4647 -79.3333 60° Northeast 487 560 35,000  Level Cleveland Center
Fri 05:33:19 AM 40.5458 -79.1486 60° Northeast 487 560 35,000  Level Cleveland Center
Fri 05:34:19 AM 40.6211 -78.9939 57° Northeast 492 566 35,000  Level Cleveland Center
Fri 05:35:19 AM 40.6875 -78.8361 61° Northeast 492 566 35,000  Level Cleveland Center
Fri 05:41:17 AM 41.1100 -77.8825 61° Northeast 499 574 35,000  Level FlightAware ADS-B
Fri 05:41:55 AM 41.1532 -77.7844 60° Northeast 499 574 35,000  Level FlightAware ADS-B
Fri 05:43:13 AM 41.2435 -77.5738 60° Northeast 501 577 35,000  Level FlightAware ADS-B
Fri 05:45:00 AM 41.3659 -77.2878 60° Northeast 502 578 35,000  Level FlightAware ADS-B
Fri 05:45:31 AM 41.4010 -77.2042 61° Northeast 504 580 35,000  Level FlightAware ADS-B
Fri 05:46:05 AM 41.4397 -77.1149 60° Northeast 504 580 35,000  Level FlightAware ADS-B
Fri 05:46:36 AM 41.4750 -77.0313 61° Northeast 503 579 35,000  Level FlightAware ADS-B
Fri 05:47:06 AM 41.5097 -76.9477 61° Northeast 502 578 35,000  Level FlightAware ADS-B
Fri 05:47:36 AM 41.5438 -76.8667 61° Northeast 501 577 35,000  Level FlightAware ADS-B
Fri 05:48:07 AM 41.5785 -76.7834 61° Northeast 498 573 35,000 -484 Level FlightAware ADS-B
Fri 05:48:38 AM 41.6126 -76.7034 60° Northeast 495 570 34,500 -984 Descending FlightAware ADS-B
Fri 05:49:08 AM 41.6464 -76.6208 61° Northeast 494 568 34,000 -1,065 Descending FlightAware ADS-B
Fri 05:49:40 AM 41.6815 -76.5379 60° Northeast 494 568 33,400 -1,161 Descending FlightAware ADS-B
Fri 05:50:10 AM 41.7154 -76.4550 61° Northeast 496 571 32,800 -1,100 Descending FlightAware ADS-B
Fri 05:50:40 AM 41.7487 -76.3748 61° Northeast 494 568 32,300 -885 Descending FlightAware ADS-B
Fri 05:51:11 AM 41.7820 -76.2923 62° Northeast 488 562 31,900 -871 Descending FlightAware ADS-B
Fri 05:51:42 AM 41.8160 -76.2107 61° Northeast 485 558 31,400 -1,161 Descending FlightAware ADS-B
Fri 05:52:13 AM 41.8496 -76.1290 61° Northeast 485 558 30,700 -1,548 Descending FlightAware ADS-B
Fri 05:52:44 AM 41.8829 -76.0465 62° Northeast 485 558 29,800 -1,286 Descending FlightAware ADS-B
Fri 05:53:51 AM 41.9453 -75.8958 62° Northeast 501 577 28,600 -1,465 Descending Boston Center
Fri 05:54:51 AM 42.0108 -75.7319 62° Northeast 488 562 26,700 -1,600 Descending Boston Center
Fri 05:55:51 AM 42.0778 -75.5703 61° Northeast 488 562 25,400 -1,250 Descending Boston Center
Fri 05:56:51 AM 42.1428 -75.4083 62° Northeast 488 562 24,200 -1,050 Descending Boston Center
Fri 05:57:51 AM 42.2053 -75.2458 63° Northeast 488 562 23,300 -1,400 Descending Boston Center
Fri 05:58:51 AM 42.2672 -75.0942 61° Northeast 482 555 21,400 -2,299 Descending Boston Center
Fri 05:59:38 AM 42.3158 -74.9700 62° Northeast 444 511 19,200 -2,708 Descending Boston Center
Fri 06:00:44 AM 42.3800 -74.8039 62° Northeast 423 487 16,300 -2,598 Descending Boston Center
Fri 06:01:45 AM 42.4306 -74.6764 62° Northeast 388 447 13,700 -2,380 Descending Boston Center
Fri 06:02:45 AM 42.4786 -74.5542 62° Northeast 363 418 11,500 -1,289 Descending Boston Center
Fri 06:03:46 AM 42.5203 -74.4403 64° Northeast 296 341 11,100 -443 Descending Boston Center
Fri 06:04:47 AM 42.5450 -74.3450 71° East 250 288 10,600 -312 Descending Boston Center
Fri 06:05:03 AM 42.5450 -74.3394 90° East 280 322 10,700 -1,900 Climbing Boston Center
Fri 06:05:47 AM 42.5547 -74.2497 82° East 250 288 8,700 -2,100 Descending Boston Center
Fri 06:06:03 AM 42.5572 -74.2272 81° East 257 296 8,600 -1,279 Descending Boston Center
Fri 06:06:48 AM 42.5625 -74.1567 84° East 252 290 7,400 -1,400 Descending Boston Center
Fri 06:07:03 AM 42.5669 -74.1428 67° East 257 296 7,200 -2,200 Descending Boston Center
Fri 06:07:48 AM 42.5742 -74.0697 82° East 244 281 5,200 -2,600 Descending Boston Center
Fri 06:08:03 AM 42.5725 -74.0414 95° East 252 290 4,600 -2,164 Descending Boston Center
Fri 06:08:49 AM 42.5631 -73.9764 101° East 247 284 3,000 -897 Descending Boston Center
Fri 06:09:50 AM 42.5764 -73.9033 76° East 200 230 3,000 -298 Level Boston Center
Fri 06:10:50 AM 42.6125 -73.8592 42° Northeast 153 176 2,400 -520 Descending Boston Center
Fri 06:11:57 AM 42.6464 -73.8147 44° Northeast 149 171 1,900 -472 Descending Boston Center
Fri 06:12:57 AM 42.6819 -73.8042 12° North 140 161 1,400 -574 Descending Boston Center
Fri 06:13:52 AM 42.7153 -73.8050 359° North 121 139 800 -655 Descending Boston Center
Fri 06:16:00 AM 42.7333 -73.8000 180° South  Level FlightAware Approximate

Login

Don't have an account? Register now (free) for customized features, flight alerts, and more!